createdAt,value
2023-06-19T00:03:10.799Z,34.92
2023-06-19T00:08:16.296Z,34.92
2023-06-19T00:13:20.049Z,35.38
2023-06-19T00:18:23.724Z,35.85
2023-06-19T00:23:29.078Z,35.15
2023-06-19T00:28:33.225Z,34.83
2023-06-19T00:33:36.931Z,34.73
2023-06-19T00:38:42.528Z,35.03
2023-06-19T00:43:46.482Z,35.32
2023-06-19T00:48:50.647Z,34.65
2023-06-19T00:53:56.022Z,33.46
2023-06-19T00:59:00.756Z,33.63
2023-06-19T01:04:04.919Z,34.20
2023-06-19T01:09:13.228Z,34.42
2023-06-19T01:14:20.965Z,35.21
2023-06-19T01:19:24.772Z,34.93
2023-06-19T01:24:30.216Z,35.65
2023-06-19T01:29:34.051Z,35.79
2023-06-19T01:34:41.081Z,36.05
2023-06-19T01:39:47.837Z,35.79
2023-06-19T01:44:52.759Z,35.36
2023-06-19T01:49:56.750Z,35.59
2023-06-19T01:55:03.022Z,35.66
2023-06-19T02:00:09.190Z,35.99
2023-06-19T02:05:13.163Z,36.61
2023-06-19T02:10:18.534Z,36.80
2023-06-19T02:15:21.422Z,37.12
2023-06-19T02:20:26.495Z,37.34
2023-06-19T02:25:31.343Z,37.65
2023-06-19T02:30:35.044Z,37.69
2023-06-19T02:35:38.743Z,38.58
2023-06-19T02:40:44.956Z,38.72
2023-06-19T02:45:48.846Z,38.82
2023-06-19T02:50:52.712Z,39.60
2023-06-19T02:55:59.047Z,39.96
2023-06-19T03:01:02.786Z,40.06
2023-06-19T03:06:08.114Z,40.05
2023-06-19T03:11:13.441Z,39.92
2023-06-19T03:16:17.329Z,40.15
2023-06-19T03:21:21.429Z,40.25
2023-06-19T03:26:27.043Z,40.98
2023-06-19T03:31:30.015Z,41.45
2023-06-19T03:36:33.769Z,41.86
2023-06-19T03:41:39.063Z,42.52
2023-06-19T03:46:42.915Z,43.03
2023-06-19T03:51:46.632Z,43.46
2023-06-19T03:56:51.978Z,44.25
2023-06-19T04:01:55.798Z,45.05
2023-06-19T04:06:59.736Z,45.31
2023-06-19T04:12:05.624Z,45.54
2023-06-19T04:17:09.307Z,45.77
2023-06-19T04:22:13.000Z,45.81
2023-06-19T04:27:18.300Z,46.72
2023-06-19T04:32:22.096Z,46.48
2023-06-19T04:37:25.834Z,46.21
2023-06-19T04:42:31.187Z,46.03
2023-06-19T04:47:47.943Z,46.08
2023-06-19T04:52:55.956Z,46.20
2023-06-19T04:58:01.352Z,46.53
2023-06-19T05:03:05.202Z,46.33
2023-06-19T05:08:08.873Z,46.60
2023-06-19T05:13:14.243Z,46.80
2023-06-19T05:18:18.022Z,46.23
2023-06-19T05:23:21.726Z,46.49
2023-06-19T05:28:27.050Z,45.34
2023-06-19T05:33:30.772Z,44.81
2023-06-19T05:38:34.518Z,44.63
2023-06-19T05:43:40.160Z,44.92
2023-06-19T05:48:43.867Z,44.38
2023-06-19T05:53:47.543Z,44.46
2023-06-19T05:58:52.811Z,44.33
2023-06-19T06:03:56.581Z,43.94
2023-06-19T06:09:00.217Z,44.69
2023-06-19T06:14:05.609Z,43.87
2023-06-19T06:19:09.373Z,44.81
2023-06-19T06:24:13.099Z,45.01
2023-06-19T06:29:18.472Z,45.99
2023-06-19T06:34:22.275Z,45.90
2023-06-19T06:39:25.896Z,46.16
2023-06-19T06:44:31.224Z,47.74
2023-06-19T06:49:34.927Z,48.30
2023-06-19T06:54:38.587Z,49.31
2023-06-19T06:59:43.908Z,49.31
2023-06-19T07:04:47.589Z,50.02
2023-06-19T07:09:51.300Z,49.97
2023-06-19T07:14:58.029Z,50.78
2023-06-19T07:20:01.768Z,50.87
2023-06-19T07:25:06.374Z,51.72
2023-06-19T07:30:14.845Z,52.51
2023-06-19T07:35:20.316Z,52.82
2023-06-19T07:40:24.448Z,53.88
2023-06-19T07:45:30.083Z,55.14
2023-06-19T07:50:33.959Z,54.80
2023-06-19T07:55:37.773Z,55.02
2023-06-19T08:00:43.141Z,56.55
2023-06-19T08:05:46.877Z,56.90
2023-06-19T08:10:50.694Z,57.71
2023-06-19T08:15:56.029Z,59.23
2023-06-19T08:20:59.650Z,59.63
2023-06-19T08:26:03.647Z,58.93
2023-06-19T08:31:09.149Z,59.61
2023-06-19T08:36:12.907Z,59.25
2023-06-19T08:41:16.631Z,60.66
2023-06-19T08:46:22.162Z,60.29
2023-06-19T08:51:25.838Z,59.67
2023-06-19T08:56:29.515Z,59.89
2023-06-19T09:01:34.852Z,59.94
2023-06-19T09:06:46.919Z,60.01
2023-06-19T09:12:01.680Z,60.95
2023-06-19T09:17:11.013Z,60.83
2023-06-19T09:22:15.705Z,59.81
2023-06-19T09:27:20.590Z,59.70
2023-06-19T09:32:27.552Z,59.70
2023-06-19T09:37:32.437Z,59.83
2023-06-19T09:42:36.740Z,59.52
2023-06-19T09:47:47.868Z,60.00
2023-06-19T09:52:53.763Z,60.54
2023-06-19T09:57:57.809Z,60.75
2023-06-19T10:03:03.280Z,61.61
2023-06-19T10:08:07.119Z,60.89
2023-06-19T10:13:18.323Z,61.69
2023-06-19T10:18:24.571Z,62.06
2023-06-19T10:23:28.427Z,61.54
2023-06-19T10:28:33.855Z,61.78
2023-06-19T10:33:39.640Z,61.98
2023-06-19T10:38:43.326Z,61.70
2023-06-19T10:43:56.687Z,62.92
2023-06-19T10:49:02.566Z,61.65
2023-06-19T10:54:06.730Z,61.47
2023-06-19T10:59:13.330Z,61.52
2023-06-19T11:04:18.769Z,61.79
2023-06-19T11:09:22.471Z,61.57
2023-06-19T11:14:31.064Z,61.19
2023-06-19T11:19:36.968Z,61.78
2023-06-19T11:24:46.250Z,61.65
2023-06-19T11:29:50.033Z,61.71
2023-06-19T11:34:56.018Z,62.20
2023-06-19T11:39:59.010Z,62.74
2023-06-19T11:45:06.160Z,62.28
2023-06-19T11:50:12.656Z,62.13
2023-06-19T11:55:16.732Z,60.99
2023-06-19T12:00:20.709Z,60.25
2023-06-19T12:05:27.077Z,60.43
2023-06-19T12:10:30.805Z,60.27
2023-06-19T12:15:36.111Z,60.11
2023-06-19T12:20:43.084Z,60.10
2023-06-19T12:25:46.803Z,60.13
2023-06-19T12:30:50.891Z,59.75
2023-06-19T12:35:56.206Z,59.27
2023-06-19T12:41:00.996Z,59.23
2023-06-19T12:46:04.921Z,58.71
2023-06-19T12:51:11.229Z,58.75
2023-06-19T12:56:14.922Z,57.90
2023-06-19T13:01:18.854Z,57.45
2023-06-19T13:06:24.521Z,57.58
2023-06-19T13:11:28.182Z,57.57
2023-06-19T13:16:45.455Z,57.54
2023-06-19T13:21:51.272Z,57.75
2023-06-19T13:26:54.964Z,57.66
2023-06-19T13:31:58.632Z,58.08
2023-06-19T13:37:04.072Z,58.14
2023-06-19T13:42:08.461Z,58.29
2023-06-19T13:47:12.190Z,58.79
2023-06-19T13:52:17.626Z,58.51
2023-06-19T13:57:21.343Z,58.25
2023-06-19T14:02:25.124Z,58.07
2023-06-19T14:07:30.597Z,58.32
2023-06-19T14:12:34.309Z,57.73
2023-06-19T14:17:40.189Z,57.47
2023-06-19T14:22:45.533Z,57.30
2023-06-19T14:27:49.242Z,56.58
2023-06-19T14:32:53.020Z,55.04
2023-06-19T14:37:58.437Z,53.59
2023-06-19T14:43:02.199Z,52.03
2023-06-19T14:48:06.593Z,50.88
2023-06-19T14:53:12.198Z,48.71
2023-06-19T14:58:16.366Z,47.46
2023-06-19T15:03:20.268Z,46.71
2023-06-19T15:08:25.618Z,45.48
2023-06-19T15:13:29.321Z,44.48
2023-06-19T15:18:33.102Z,42.67
2023-06-19T15:23:41.515Z,41.80
2023-06-19T15:28:45.183Z,40.72
2023-06-19T15:33:48.935Z,40.68
2023-06-19T15:38:54.315Z,40.48
2023-06-19T15:43:57.267Z,38.51
2023-06-19T15:49:00.981Z,39.87
2023-06-19T15:54:06.485Z,38.80
2023-06-19T15:59:10.207Z,38.32
2023-06-19T16:04:14.097Z,38.56
2023-06-19T16:09:19.446Z,37.47
2023-06-19T16:14:23.255Z,36.96
2023-06-19T16:19:46.390Z,36.01
2023-06-19T16:25:01.564Z,35.90
2023-06-19T16:30:05.995Z,36.82
2023-06-19T16:35:24.467Z,34.83
2023-06-19T16:40:39.448Z,35.55
2023-06-19T16:45:45.773Z,34.45
2023-06-19T16:50:49.453Z,34.72
2023-06-19T16:55:54.788Z,34.38
2023-06-19T17:00:58.485Z,34.23
2023-06-19T17:06:12.908Z,33.96
2023-06-19T17:11:21.535Z,33.58
2023-06-19T17:16:25.333Z,33.57
2023-06-19T17:21:29.000Z,33.55
2023-06-19T17:26:34.391Z,33.29
2023-06-19T17:31:38.060Z,33.54
2023-06-19T17:36:41.733Z,33.29
2023-06-19T17:41:47.032Z,32.30
2023-06-19T17:46:50.749Z,31.97
2023-06-19T17:51:54.456Z,31.43
2023-06-19T17:56:59.818Z,31.90
2023-06-19T18:02:03.521Z,31.71
2023-06-19T18:07:07.997Z,32.10
2023-06-19T18:12:13.545Z,31.43
2023-06-19T18:17:17.316Z,31.44
2023-06-19T18:22:21.066Z,30.83
2023-06-19T18:27:26.367Z,31.48
2023-06-19T18:32:30.057Z,31.33
2023-06-19T18:37:33.738Z,30.33
2023-06-19T18:42:39.039Z,30.62
2023-06-19T18:47:42.759Z,30.61
2023-06-19T18:52:46.482Z,30.52
2023-06-19T18:57:51.945Z,30.09
2023-06-19T19:02:55.732Z,31.12
2023-06-19T19:07:59.612Z,31.33
2023-06-19T19:13:04.954Z,30.93
2023-06-19T19:18:08.663Z,31.35
2023-06-19T19:23:12.397Z,31.26
2023-06-19T19:28:17.762Z,30.56
2023-06-19T19:33:21.556Z,31.52
2023-06-19T19:38:25.309Z,31.57
2023-06-19T19:43:30.606Z,31.27
2023-06-19T19:48:34.353Z,31.36
2023-06-19T19:53:38.003Z,30.74
2023-06-19T19:58:43.300Z,29.97
2023-06-19T20:03:47.090Z,30.70
2023-06-19T20:08:51.592Z,30.77
2023-06-19T20:13:56.932Z,31.49
2023-06-19T20:19:00.640Z,31.78
2023-06-19T20:24:04.539Z,30.82
2023-06-19T20:29:09.950Z,31.38
2023-06-19T20:34:13.664Z,30.97
2023-06-19T20:39:17.341Z,31.44
2023-06-19T20:44:22.612Z,31.16
2023-06-19T20:49:26.379Z,31.42
2023-06-19T20:54:30.035Z,31.74
2023-06-19T20:59:35.345Z,31.46
2023-06-19T21:04:38.982Z,31.38
2023-06-19T21:09:42.998Z,30.34
2023-06-19T21:14:48.369Z,30.27
2023-06-19T21:19:52.105Z,30.42
2023-06-19T21:24:55.794Z,30.05
2023-06-19T21:30:01.162Z,29.88
2023-06-19T21:35:05.125Z,31.13
2023-06-19T21:40:09.569Z,31.00
2023-06-19T21:45:14.940Z,30.18
2023-06-19T21:50:18.764Z,31.04
2023-06-19T21:55:22.559Z,30.85
2023-06-19T22:00:28.985Z,31.28
2023-06-19T22:05:33.264Z,31.28
2023-06-19T22:10:36.955Z,30.95
2023-06-19T22:15:42.316Z,30.76
2023-06-19T22:20:46.051Z,30.81
2023-06-19T22:25:49.804Z,30.82
2023-06-19T22:30:55.124Z,31.56
2023-06-19T22:35:58.876Z,31.19
2023-06-19T22:41:02.574Z,31.33
2023-06-19T22:46:07.917Z,31.72
2023-06-19T22:51:11.822Z,32.27
2023-06-19T22:56:15.578Z,32.26
2023-06-19T23:01:20.934Z,32.33
2023-06-19T23:06:25.482Z,32.94
2023-06-19T23:11:29.179Z,32.82
2023-06-19T23:16:34.706Z,32.44
2023-06-19T23:21:39.127Z,33.41
2023-06-19T23:26:42.808Z,33.36
2023-06-19T23:31:48.815Z,34.25
2023-06-19T23:36:53.841Z,34.13
2023-06-19T23:41:57.676Z,35.12
2023-06-19T23:47:03.023Z,34.49
2023-06-19T23:52:07.548Z,35.25
2023-06-19T23:57:11.252Z,35.58
